Chillicothe, Texas
Current Conditions -  °F | °C
As of 1:16 PM on Friday 24 Oct 2014 (Local Time) from KF05 Reporting Station
Clear Clear  
Wind Chill: 86°   Ceiling: Unl
Heat Index: 86°   Visibility: 10mi
Dew Point: 59°   Wind: 10mph
Humidity: 40%   Direction: 200°SSW
Pressure: 30.09"   Gusts: NA
Location:  34.26°N, 99.52°W
Report Text: KF05 241816Z AUTO 20009KT 10SM CLR 30/15 A3009 RMK AO2
Loading
Personal Weather Stations






























Interactive Weather Map
Tropical Storm Tracking
New forecast layout! Learn more

10-Day Weather Forecast

Advertisements
Track Severe Weather on mobile